Time;durP1;ratioP1;P1;durP2;ratioP2;P2;SDS_P1;SDS_P2;PMS_P1;PMS_P2;Temp;Humidity;BMP_temperature;BMP_pressure;BME280_temperature;BME280_humidity;BME280_pressure;Samples;Min_cycle;Max_cycle;Signal;HPM_P1;HPM_P2
2022/04/18 00:02:26;;;;;;;15.32;10.60;;;8.40;68.80;;;;;;4975758;28;20038;-62
2022/04/18 00:04:52;;;;;;;14.77;10.25;;;8.30;68.90;;;;;;4989163;28;20412;-62
2022/04/18 00:07:18;;;;;;;14.15;10.00;;;8.30;69.00;;;;;;4973918;28;20041;-63
2022/04/18 00:09:44;;;;;;;16.58;10.07;;;8.20;69.30;;;;;;4990357;28;20504;-62
2022/04/18 00:12:10;;;;;;;13.55;10.27;;;8.30;69.20;;;;;;4981522;28;20088;-63
2022/04/18 00:14:35;;;;;;;15.85;11.02;;;8.30;69.40;;;;;;4991919;28;20559;-64
2022/04/18 00:17:01;;;;;;;16.77;10.00;;;8.30;69.40;;;;;;4962741;28;20302;-64
2022/04/18 00:19:27;;;;;;;14.80;9.80;;;8.20;69.40;;;;;;4968055;28;20124;-63
2022/04/18 00:21:53;;;;;;;15.50;10.18;;;8.20;69.40;;;;;;4988565;28;20057;-62
2022/04/18 00:24:21;;;;;;;14.77;10.65;;;8.20;69.10;;;;;;4970877;28;20069;-63
2022/04/18 00:26:47;;;;;;;13.93;10.77;;;8.20;69.10;;;;;;4994152;28;20111;-62
2022/04/18 00:29:14;;;;;;;16.20;10.68;;;8.10;69.00;;;;;;4990932;28;20084;-63
2022/04/18 00:31:40;;;;;;;15.63;11.05;;;8.10;69.00;;;;;;4994356;28;20041;-62
2022/04/18 00:34:06;;;;;;;17.67;11.27;;;8.00;69.00;;;;;;4984831;28;20057;-63
2022/04/18 00:36:32;;;;;;;16.30;11.38;;;8.00;68.90;;;;;;4988102;28;20445;-61
2022/04/18 00:38:58;;;;;;;17.60;11.07;;;8.00;69.00;;;;;;4983261;28;21206;-62
2022/04/18 00:41:24;;;;;;;19.40;11.75;;;7.90;68.90;;;;;;5008544;28;20396;-63
2022/04/18 00:43:50;;;;;;;17.13;11.05;;;7.90;69.20;;;;;;4977092;28;20048;-63
2022/04/18 00:46:18;;;;;;;15.77;10.88;;;7.80;69.00;;;;;;4990034;28;20569;-63
2022/04/18 00:48:44;;;;;;;15.00;10.43;;;7.80;69.30;;;;;;4983876;28;21556;-62
2022/04/18 00:51:12;;;;;;;15.23;10.50;;;7.70;69.60;;;;;;4984861;28;20057;-62
2022/04/18 00:53:39;;;;;;;15.13;11.10;;;7.70;69.60;;;;;;4973171;28;20504;-63
2022/04/18 00:56:07;;;;;;;18.33;11.82;;;7.70;69.70;;;;;;4986939;28;20041;-63
2022/04/18 00:58:33;;;;;;;18.33;12.68;;;7.60;69.90;;;;;;4988628;28;20042;-63
2022/04/18 01:00:59;;;;;;;20.38;12.32;;;7.60;70.00;;;;;;4989443;28;20562;-62
2022/04/18 01:03:26;;;;;;;17.00;10.93;;;7.70;70.30;;;;;;4998167;28;20041;-62
2022/04/18 01:05:52;;;;;;;19.23;12.40;;;7.60;70.50;;;;;;4995029;28;20191;-63
2022/04/18 01:08:17;;;;;;;16.50;11.32;;;7.60;70.80;;;;;;4991956;28;20512;-64
2022/04/18 01:10:46;;;;;;;17.15;11.50;;;7.60;71.20;;;;;;4969127;28;20045;-61
2022/04/18 01:13:12;;;;;;;18.38;11.82;;;7.50;71.30;;;;;;4997279;28;21103;-63
2022/04/18 01:15:38;;;;;;;18.50;12.50;;;7.40;71.50;;;;;;4981907;28;20069;-61
2022/04/18 01:18:03;;;;;;;17.55;12.00;;;7.50;71.70;;;;;;4979297;28;20053;-62
2022/04/18 01:20:36;;;;;;;18.67;12.38;;;7.50;72.00;;;;;;4955391;28;20115;-63
2022/04/18 01:23:06;;;;;;;18.13;12.10;;;7.50;72.30;;;;;;4987327;28;20077;-62
2022/04/18 01:31:02;;;;;;;15.80;12.18;;;7.40;72.50;;;;;;4982305;28;20473;-64
2022/04/18 01:33:29;;;;;;;16.55;11.07;;;7.40;72.60;;;;;;4990159;28;20267;-64
2022/04/18 01:35:55;;;;;;;16.83;11.93;;;7.40;73.40;;;;;;4982466;28;20103;-63
2022/04/18 01:38:21;;;;;;;17.30;12.05;;;7.40;73.00;;;;;;4989820;28;20604;-64
2022/04/18 01:40:46;;;;;;;16.27;11.95;;;7.40;73.20;;;;;;4980018;28;20306;-63
2022/04/18 01:43:12;;;;;;;17.27;10.75;;;7.40;73.50;;;;;;4994001;28;20386;-64
2022/04/18 01:45:38;;;;;;;18.27;11.82;;;7.40;73.50;;;;;;4996484;28;20042;-62
2022/04/18 01:48:04;;;;;;;17.15;12.38;;;7.40;73.70;;;;;;4992157;28;20033;-62
2022/04/18 01:50:30;;;;;;;17.23;11.68;;;7.30;74.00;;;;;;5001976;28;20133;-63
2022/04/18 01:52:55;;;;;;;15.70;10.77;;;7.30;74.10;;;;;;5000590;28;20116;-62
2022/04/18 01:55:21;;;;;;;14.40;10.65;;;7.30;74.20;;;;;;4977842;28;20088;-63
2022/04/18 01:57:47;;;;;;;14.80;10.30;;;7.30;74.10;;;;;;4974567;28;20060;-63
2022/04/18 02:00:13;;;;;;;18.30;11.95;;;7.20;74.00;;;;;;4995736;28;20050;-63
2022/04/18 02:02:39;;;;;;;16.05;11.48;;;7.20;74.20;;;;;;4986027;28;20124;-61
2022/04/18 02:05:07;;;;;;;15.82;11.43;;;7.20;74.50;;;;;;4993860;28;20041;-62
2022/04/18 02:07:33;;;;;;;20.77;12.48;;;7.20;74.00;;;;;;4961124;28;20051;-62
2022/04/18 02:09:59;;;;;;;16.23;11.68;;;7.20;73.80;;;;;;4973802;28;20046;-63
2022/04/18 02:12:24;;;;;;;18.00;12.30;;;7.20;73.50;;;;;;5000284;28;20100;-63
2022/04/18 02:14:50;;;;;;;14.55;10.88;;;7.20;73.50;;;;;;4967062;28;20045;-63
2022/04/18 02:17:16;;;;;;;16.50;10.68;;;7.20;73.00;;;;;;4964161;28;20062;-63
2022/04/18 02:19:42;;;;;;;15.30;10.52;;;7.30;72.90;;;;;;4979184;28;20045;-62
2022/04/18 02:22:08;;;;;;;16.33;11.52;;;7.20;73.00;;;;;;4978103;28;20057;-63
2022/04/18 02:24:33;;;;;;;17.13;11.15;;;7.20;72.70;;;;;;4976335;28;20057;-61
2022/04/18 02:26:59;;;;;;;15.80;11.25;;;7.20;72.90;;;;;;4991470;28;20651;-63
2022/04/18 02:29:25;;;;;;;18.17;11.93;;;7.10;72.70;;;;;;4977353;28;20033;-61
2022/04/18 02:34:35;;;;;;;;;;;7.10;72.80;;;;;;4982810;28;20045;-63
2022/04/18 02:37:01;;;;;;;16.70;12.00;;;7.10;73.40;;;;;;4978760;28;19925;-63
2022/04/18 02:39:26;;;;;;;18.00;11.85;;;7.10;73.00;;;;;;4988386;28;20033;-62
2022/04/18 02:41:52;;;;;;;16.45;11.55;;;7.10;72.90;;;;;;4991595;28;20060;-63
2022/04/18 02:44:18;;;;;;;18.85;12.40;;;7.10;73.10;;;;;;4987753;28;20029;-62
2022/04/18 02:46:43;;;;;;;18.77;12.20;;;7.10;73.30;;;;;;4999300;28;20529;-62
2022/04/18 02:49:09;;;;;;;19.40;12.95;;;7.10;73.40;;;;;;4993902;28;20041;-63
2022/04/18 02:51:35;;;;;;;15.77;11.60;;;7.10;73.60;;;;;;4943586;28;20041;-63
2022/04/18 02:54:00;;;;;;;16.73;11.50;;;7.00;73.80;;;;;;4988125;28;20061;-63
2022/04/18 02:56:26;;;;;;;18.23;12.02;;;7.00;73.90;;;;;;4966426;28;20710;-61
2022/04/18 02:58:52;;;;;;;18.02;12.27;;;7.00;74.10;;;;;;4970154;28;20113;-63
2022/04/18 03:01:17;;;;;;;18.65;12.48;;;6.90;73.90;;;;;;4971945;28;20680;-63
2022/04/18 03:03:43;;;;;;;17.98;12.15;;;7.00;74.10;;;;;;4993161;28;20041;-63
2022/04/18 03:06:10;;;;;;;17.58;12.30;;;6.90;74.20;;;;;;4981248;28;20041;-63
2022/04/18 03:08:36;;;;;;;17.27;11.55;;;6.90;74.50;;;;;;4982914;28;20465;-62
2022/04/18 03:11:09;;;;;;;16.88;11.65;;;6.90;74.50;;;;;;4953039;28;21096;-61
2022/04/18 03:13:37;;;;;;;16.30;11.90;;;6.90;74.60;;;;;;4981727;28;20033;-62
2022/04/18 03:16:05;;;;;;;18.38;12.75;;;6.90;74.90;;;;;;4991786;28;20052;-61
2022/04/18 03:18:31;;;;;;;16.85;11.65;;;6.80;74.90;;;;;;4986028;28;20080;-62
2022/04/18 03:20:57;;;;;;;18.52;12.25;;;6.80;74.90;;;;;;4991969;28;20067;-62
2022/04/18 03:23:23;;;;;;;18.42;12.85;;;6.80;74.90;;;;;;4989463;28;20123;-61
2022/04/18 03:25:49;;;;;;;15.98;11.77;;;6.80;74.90;;;;;;4973512;28;20465;-63
2022/04/18 03:28:15;;;;;;;18.90;12.25;;;6.70;74.90;;;;;;4974111;28;20037;-63
2022/04/18 03:30:41;;;;;;;17.58;12.27;;;6.70;74.90;;;;;;4987540;28;20115;-63
2022/04/18 03:33:07;;;;;;;15.35;11.70;;;6.70;75.10;;;;;;4985598;28;20038;-62
2022/04/18 03:35:33;;;;;;;18.30;12.57;;;6.70;75.10;;;;;;4996120;28;20072;-64
2022/04/18 03:40:43;;;;;;;17.75;12.18;;;6.70;75.30;;;;;;5006298;28;20033;-63
2022/04/18 03:43:08;;;;;;;18.60;12.27;;;6.70;75.40;;;;;;4993808;28;20152;-63
2022/04/18 03:45:34;;;;;;;17.95;12.27;;;6.60;75.20;;;;;;5002049;28;20139;-62
2022/04/18 03:48:00;;;;;;;18.90;12.20;;;6.60;75.10;;;;;;5004406;28;20550;-63
2022/04/18 03:50:26;;;;;;;18.00;12.68;;;6.60;75.00;;;;;;5006748;28;20076;-63
2022/04/18 03:52:52;;;;;;;18.25;11.95;;;6.60;74.90;;;;;;5003409;28;20037;-62
2022/04/18 03:55:18;;;;;;;18.65;12.80;;;6.60;75.10;;;;;;4973133;28;20061;-63
2022/04/18 03:57:44;;;;;;;16.55;11.88;;;6.60;74.90;;;;;;5003696;28;20041;-62
2022/04/18 04:00:11;;;;;;;21.90;13.00;;;6.60;75.00;;;;;;4959560;28;20069;-62
2022/04/18 04:02:37;;;;;;;17.58;11.52;;;6.60;74.90;;;;;;4980707;28;20579;-63
2022/04/18 04:05:03;;;;;;;17.90;11.82;;;6.60;74.80;;;;;;4983480;28;20060;-63
2022/04/18 04:07:29;;;;;;;15.55;11.60;;;6.60;74.90;;;;;;4982518;28;20042;-62
2022/04/18 04:09:55;;;;;;;16.13;11.23;;;6.60;74.70;;;;;;4994194;28;20141;-63
2022/04/18 04:12:25;;;;;;;18.05;11.75;;;6.60;74.80;;;;;;4988100;28;20049;-63
2022/04/18 04:14:54;;;;;;;16.25;11.52;;;6.60;74.70;;;;;;4991313;28;20065;-62
2022/04/18 04:17:24;;;;;;;17.02;11.52;;;6.40;74.60;;;;;;4979271;28;20108;-62
2022/04/18 04:19:50;;;;;;;18.77;12.00;;;6.60;74.90;;;;;;4942654;28;20068;-63
2022/04/18 04:22:16;;;;;;;18.45;12.23;;;6.50;75.00;;;;;;4977638;28;20048;-61
2022/04/18 04:24:41;;;;;;;21.13;13.05;;;6.50;75.10;;;;;;4994212;28;20029;-62
2022/04/18 04:27:07;;;;;;;16.77;12.63;;;6.50;75.20;;;;;;4986650;28;20293;-62
2022/04/18 04:29:33;;;;;;;18.00;12.50;;;6.40;75.20;;;;;;4991289;28;20500;-61
2022/04/18 04:31:59;;;;;;;18.02;11.68;;;6.50;75.20;;;;;;4981464;28;20034;-63
2022/04/18 04:34:24;;;;;;;18.67;13.38;;;6.40;75.70;;;;;;4993540;28;20603;-62
2022/04/18 04:36:50;;;;;;;17.30;13.30;;;6.40;75.70;;;;;;4986563;28;20029;-62
2022/04/18 04:39:17;;;;;;;20.08;12.38;;;6.40;75.50;;;;;;4978631;28;20689;-61
2022/04/18 04:41:43;;;;;;;15.45;11.13;;;6.30;75.40;;;;;;4972780;28;20048;-62
2022/04/18 04:44:09;;;;;;;19.23;12.55;;;6.30;75.60;;;;;;4979465;28;20053;-62
2022/04/18 04:46:36;;;;;;;18.58;12.93;;;6.30;75.90;;;;;;4975072;28;20048;-62
2022/04/18 04:49:02;;;;;;;17.75;11.52;;;6.30;76.00;;;;;;4997619;28;20045;-61
2022/04/18 04:51:28;;;;;;;16.38;13.48;;;6.30;76.20;;;;;;4968457;28;20080;-62
2022/04/18 04:53:54;;;;;;;15.93;12.02;;;6.30;76.60;;;;;;4972139;28;20718;-62
2022/04/18 04:56:24;;;;;;;19.23;13.00;;;6.30;77.00;;;;;;4992858;28;20871;-61
2022/04/18 04:58:50;;;;;;;18.33;11.90;;;6.30;77.20;;;;;;4994818;28;20069;-60
2022/04/18 05:01:16;;;;;;;17.95;12.23;;;6.30;77.10;;;;;;4981436;28;20100;-61
2022/04/18 05:03:42;;;;;;;19.67;12.98;;;6.30;77.30;;;;;;4994691;28;20045;-63
2022/04/18 05:06:08;;;;;;;20.65;14.48;;;6.30;77.50;;;;;;4961195;28;20041;-63
2022/04/18 05:08:33;;;;;;;19.15;11.93;;;6.40;77.30;;;;;;4994553;28;20068;-62
2022/04/18 05:11:02;;;;;;;18.02;12.88;;;6.40;77.60;;;;;;4980500;28;20049;-61
2022/04/18 05:13:28;;;;;;;18.88;12.93;;;6.40;77.60;;;;;;4980031;28;20064;-62
2022/04/18 05:15:54;;;;;;;17.77;12.55;;;6.40;77.90;;;;;;4971784;28;20049;-61
2022/04/18 05:18:19;;;;;;;18.58;12.98;;;6.40;77.90;;;;;;4964709;28;20068;-62
2022/04/18 05:20:46;;;;;;;16.90;12.65;;;6.50;77.90;;;;;;4985366;28;20272;-61
2022/04/18 05:23:15;;;;;;;20.02;12.30;;;6.50;77.80;;;;;;4994438;28;20545;-63
2022/04/18 05:25:40;;;;;;;19.42;14.10;;;6.50;77.70;;;;;;4971645;28;20041;-63
2022/04/18 05:28:06;;;;;;;19.08;12.70;;;6.60;77.80;;;;;;4986879;28;20037;-61
2022/04/18 05:30:32;;;;;;;17.75;12.23;;;6.60;77.70;;;;;;4973555;28;22172;-63
2022/04/18 05:32:58;;;;;;;22.20;13.70;;;6.70;77.50;;;;;;4967223;28;20497;-61
2022/04/18 05:35:24;;;;;;;17.10;12.50;;;6.70;77.40;;;;;;4999682;28;20053;-62
2022/04/18 05:37:50;;;;;;;18.70;13.32;;;6.80;77.50;;;;;;4986544;28;20049;-62
2022/04/18 05:40:15;;;;;;;16.20;12.63;;;6.80;77.30;;;;;;4980420;28;20477;-63
2022/04/18 05:42:41;;;;;;;17.40;12.25;;;6.90;77.30;;;;;;4988786;28;20877;-62
2022/04/18 05:45:08;;;;;;;17.52;12.93;;;7.00;77.40;;;;;;5006087;28;20140;-63
2022/04/18 05:47:33;;;;;;;18.42;13.00;;;7.00;77.30;;;;;;4977093;28;20037;-61
2022/04/18 05:49:59;;;;;;;19.13;12.68;;;7.10;77.50;;;;;;4997069;28;20058;-62
2022/04/18 05:52:25;;;;;;;18.98;13.20;;;7.20;77.40;;;;;;4998205;28;20038;-63
2022/04/18 05:54:51;;;;;;;19.15;12.52;;;7.30;77.70;;;;;;5009877;28;20037;-63
2022/04/18 05:57:16;;;;;;;18.25;12.35;;;7.30;77.10;;;;;;5003854;28;20124;-62
2022/04/18 05:59:42;;;;;;;20.13;13.25;;;7.40;77.20;;;;;;4988191;28;20441;-61
2022/04/18 06:02:09;;;;;;;17.20;12.10;;;7.50;77.10;;;;;;4995458;28;20045;-62
2022/04/18 06:04:34;;;;;;;18.63;13.25;;;7.50;77.20;;;;;;4985836;28;20187;-63
2022/04/18 06:07:00;;;;;;;17.23;12.07;;;7.60;77.40;;;;;;5005215;28;20189;-62
2022/04/18 06:09:25;;;;;;;18.35;12.80;;;7.70;77.00;;;;;;4984986;28;20053;-64
2022/04/18 06:11:51;;;;;;;20.02;13.77;;;7.80;76.60;;;;;;4963356;28;20044;-63
2022/04/18 06:14:17;;;;;;;17.63;13.18;;;7.90;76.60;;;;;;4972545;28;20674;-61
2022/04/18 06:16:43;;;;;;;17.30;12.68;;;8.00;76.30;;;;;;4987006;28;20060;-63
2022/04/18 06:19:09;;;;;;;19.10;12.70;;;8.10;75.90;;;;;;4969995;28;20045;-62
2022/04/18 06:21:34;;;;;;;17.83;13.60;;;8.20;75.40;;;;;;4952845;28;20049;-63
2022/04/18 06:24:00;;;;;;;20.08;13.25;;;8.30;75.20;;;;;;4986789;28;20269;-61
2022/04/18 06:26:26;;;;;;;22.63;14.55;;;8.40;75.30;;;;;;4970074;28;20129;-61
2022/04/18 06:28:52;;;;;;;18.15;12.80;;;8.50;74.90;;;;;;4977010;28;20092;-61
2022/04/18 06:31:18;;;;;;;17.83;11.93;;;8.60;74.00;;;;;;4963798;28;20041;-62
2022/04/18 06:33:43;;;;;;;20.00;13.02;;;8.70;74.00;;;;;;4974928;28;20037;-63
2022/04/18 06:36:09;;;;;;;17.70;12.05;;;8.80;73.70;;;;;;4983477;28;20121;-62
2022/04/18 06:38:35;;;;;;;18.90;11.85;;;8.90;73.20;;;;;;5021203;23;20048;-60
2022/04/18 06:41:01;;;;;;;17.13;12.25;;;9.00;73.20;;;;;;5019031;28;20430;-62
2022/04/18 06:43:27;;;;;;;17.35;12.85;;;9.20;72.70;;;;;;5011515;28;20037;-62
2022/04/18 06:45:53;;;;;;;18.35;11.80;;;9.30;72.60;;;;;;5033221;28;20664;-61
2022/04/18 06:48:19;;;;;;;16.48;11.52;;;9.40;72.10;;;;;;5001040;28;20080;-60
2022/04/18 06:50:46;;;;;;;17.02;11.25;;;9.50;71.80;;;;;;5035450;28;20041;-58
2022/04/18 06:53:12;;;;;;;15.25;10.65;;;9.60;72.00;;;;;;5021141;28;20120;-63
2022/04/18 06:58:23;;;;;;;;;;;9.90;71.30;;;;;;5019758;28;20557;-61
2022/04/18 07:00:49;;;;;;;14.90;11.35;;;9.90;71.50;;;;;;5017938;28;19982;-60
2022/04/18 07:03:15;;;;;;;15.45;10.65;;;10.10;71.20;;;;;;5035224;28;20496;-61
2022/04/18 07:05:41;;;;;;;16.85;11.20;;;10.20;71.10;;;;;;5021708;28;20044;-61
2022/04/18 07:08:08;;;;;;;17.52;11.07;;;10.30;70.80;;;;;;5032082;28;20039;-62
2022/04/18 07:10:33;;;;;;;14.30;9.93;;;10.40;70.00;;;;;;5016419;28;20041;-60
2022/04/18 07:12:59;;;;;;;12.95;9.38;;;10.60;69.70;;;;;;5006240;28;20037;-62
2022/04/18 07:15:25;;;;;;;16.17;10.30;;;10.70;69.40;;;;;;5018951;28;20515;-60
2022/04/18 07:17:51;;;;;;;16.10;9.35;;;10.80;68.70;;;;;;5017890;28;20119;-62
2022/04/18 07:20:17;;;;;;;12.93;9.07;;;11.00;67.50;;;;;;5013053;28;20048;-63
2022/04/18 07:22:43;;;;;;;18.20;10.30;;;11.10;67.70;;;;;;5019867;28;20041;-59
2022/04/18 07:25:09;;;;;;;14.13;9.20;;;11.20;67.30;;;;;;5016183;28;20493;-60
2022/04/18 07:27:35;;;;;;;15.55;9.93;;;11.30;67.20;;;;;;5013560;28;20037;-60
2022/04/18 07:30:01;;;;;;;14.98;9.93;;;11.40;67.70;;;;;;5012235;28;20045;-59
2022/04/18 07:32:27;;;;;;;12.63;10.20;;;11.60;66.70;;;;;;5031479;28;20087;-62
2022/04/18 07:34:55;;;;;;;15.07;9.55;;;11.70;66.10;;;;;;5021207;28;20037;-59
2022/04/18 07:37:21;;;;;;;15.68;9.80;;;12.00;66.50;;;;;;5001080;28;20773;-61
2022/04/18 07:39:47;;;;;;;15.02;9.48;;;12.10;65.10;;;;;;5002152;28;20775;-59
2022/04/18 07:42:13;;;;;;;12.00;9.20;;;12.20;64.00;;;;;;5021229;28;20037;-61
2022/04/18 07:44:39;;;;;;;14.50;9.52;;;12.30;64.80;;;;;;5011517;28;20094;-61
2022/04/18 07:47:04;;;;;;;16.00;10.50;;;12.40;64.20;;;;;;5021971;28;20037;-61
2022/04/18 07:49:30;;;;;;;13.20;9.90;;;12.50;64.20;;;;;;5011644;28;20179;-64
2022/04/18 07:51:56;;;;;;;11.30;8.75;;;12.60;63.30;;;;;;5025107;28;20076;-64
2022/04/18 07:54:23;;;;;;;12.65;8.43;;;12.70;63.50;;;;;;5029021;28;20479;-62
2022/04/18 07:56:49;;;;;;;11.65;8.95;;;12.80;63.90;;;;;;5023231;28;20076;-60
2022/04/18 07:59:15;;;;;;;13.93;9.63;;;12.90;64.40;;;;;;5026941;28;20047;-62
2022/04/18 08:01:41;;;;;;;13.68;8.45;;;13.10;63.80;;;;;;5007547;28;20811;-62
2022/04/18 08:04:07;;;;;;;14.68;8.63;;;13.20;63.20;;;;;;5035790;28;20040;-62
2022/04/18 08:06:33;;;;;;;12.20;8.93;;;13.30;63.10;;;;;;5019693;28;20067;-66
2022/04/18 08:08:59;;;;;;;12.20;8.45;;;13.40;62.10;;;;;;5012911;28;20048;-62
2022/04/18 08:11:26;;;;;;;9.43;7.05;;;13.50;62.10;;;;;;5006675;28;20051;-60
2022/04/18 08:13:52;;;;;;;11.63;7.90;;;13.60;61.80;;;;;;5010622;28;20046;-62
2022/04/18 08:16:18;;;;;;;12.20;8.82;;;13.60;61.40;;;;;;5011494;28;21274;-62
2022/04/18 08:18:45;;;;;;;12.88;8.75;;;13.70;62.00;;;;;;5024677;28;20041;-60
2022/04/18 08:21:14;;;;;;;14.43;8.00;;;13.80;61.60;;;;;;5009831;28;20057;-65
2022/04/18 08:23:41;;;;;;;12.82;9.18;;;13.90;61.10;;;;;;5034159;28;20038;-63
2022/04/18 08:26:06;;;;;;;12.10;7.80;;;14.10;61.80;;;;;;5006344;28;20337;-60
2022/04/18 08:28:32;;;;;;;11.43;8.60;;;14.20;61.10;;;;;;4990683;28;20047;-62
2022/04/18 08:30:59;;;;;;;11.85;8.15;;;14.30;60.90;;;;;;5012875;28;20049;-62
2022/04/18 08:33:25;;;;;;;11.55;7.97;;;14.30;61.00;;;;;;5035245;28;20041;-63
2022/04/18 08:35:51;;;;;;;9.52;7.20;;;14.50;60.70;;;;;;5021265;28;20029;-65
2022/04/18 08:38:17;;;;;;;12.55;7.85;;;14.50;59.60;;;;;;5013290;28;20430;-62
2022/04/18 08:40:44;;;;;;;11.82;7.55;;;14.60;59.50;;;;;;4997989;28;20033;-63
2022/04/18 08:43:10;;;;;;;10.82;7.55;;;14.70;59.40;;;;;;5010914;28;20045;-63
2022/04/18 08:45:37;;;;;;;10.80;8.40;;;14.80;59.90;;;;;;5043105;28;20092;-60
2022/04/18 08:53:37;;;;;;;11.38;7.57;;;15.20;59.80;;;;;;5017928;28;20060;-63
2022/04/18 08:56:03;;;;;;;11.40;7.38;;;15.30;58.20;;;;;;5009709;28;20108;-64
2022/04/18 08:58:30;;;;;;;10.30;7.10;;;15.40;58.30;;;;;;5016617;28;20091;-60
2022/04/18 09:00:57;;;;;;;12.95;7.82;;;15.60;58.40;;;;;;5014602;28;20041;-60
2022/04/18 09:03:23;;;;;;;9.43;6.95;;;15.70;57.50;;;;;;5031613;28;20747;-62
2022/04/18 09:05:49;;;;;;;10.20;6.80;;;15.80;57.40;;;;;;5019917;28;20146;-62
2022/04/18 09:08:14;;;;;;;10.32;7.00;;;16.00;57.50;;;;;;5021560;28;20041;-62
2022/04/18 09:10:42;;;;;;;9.05;6.68;;;16.10;57.00;;;;;;5023775;28;20301;-65
2022/04/18 09:13:10;;;;;;;9.18;6.47;;;16.20;56.50;;;;;;5008803;28;20132;-62
2022/04/18 09:15:35;;;;;;;11.02;6.47;;;16.30;56.10;;;;;;4998204;28;20055;-62
2022/04/18 09:18:15;;;;;;;8.20;6.15;;;16.40;56.40;;;;;;5037575;28;20045;-64
2022/04/18 09:20:48;;;;;;;9.18;6.78;;;16.60;56.00;;;;;;5017378;28;20530;-60
2022/04/18 09:23:20;;;;;;;8.20;6.20;;;16.60;55.20;;;;;;4999872;28;20040;-60
2022/04/18 09:25:50;;;;;;;10.13;7.30;;;16.80;55.50;;;;;;5022042;28;20041;-60
2022/04/18 09:28:16;;;;;;;9.27;6.82;;;16.90;54.70;;;;;;5030520;28;20037;-59
2022/04/18 09:30:43;;;;;;;15.00;6.72;;;17.00;54.10;;;;;;5015826;28;20033;-60
2022/04/18 09:33:08;;;;;;;10.98;6.78;;;17.10;54.70;;;;;;5036957;28;20533;-65
2022/04/18 09:35:35;;;;;;;13.55;8.20;;;17.10;54.60;;;;;;5032297;28;20033;-63
2022/04/18 09:38:08;;;;;;;10.40;6.90;;;17.30;54.60;;;;;;5023737;28;20390;-62
2022/04/18 09:40:36;;;;;;;8.60;5.13;;;17.40;55.50;;;;;;5011205;28;20120;-61
2022/04/18 09:43:02;;;;;;;9.02;5.90;;;17.50;53.40;;;;;;5048844;28;20033;-60
2022/04/18 09:45:28;;;;;;;8.27;6.05;;;17.70;54.00;;;;;;5019440;28;20041;-64
2022/04/18 09:48:01;;;;;;;9.23;6.22;;;17.70;53.20;;;;;;5017944;28;20040;-65
2022/04/18 09:53:26;;;;;;;7.75;6.10;;;17.90;53.70;;;;;;5017674;28;20053;-62
2022/04/18 09:55:57;;;;;;;12.20;6.90;;;18.00;53.00;;;;;;5015192;28;20033;-63
2022/04/18 09:58:24;;;;;;;8.45;6.50;;;18.10;52.60;;;;;;5028437;28;20523;-61
2022/04/18 10:00:50;;;;;;;9.18;5.85;;;18.10;51.70;;;;;;5008163;28;20056;-62
2022/04/18 10:03:17;;;;;;;10.40;6.63;;;18.20;53.30;;;;;;5019760;28;20052;-63
2022/04/18 10:05:43;;;;;;;9.77;7.00;;;18.20;52.30;;;;;;5028726;28;20056;-62
2022/04/18 10:08:09;;;;;;;9.05;6.60;;;18.30;52.60;;;;;;5041363;28;20415;-63
2022/04/18 10:10:37;;;;;;;7.82;6.28;;;18.40;52.30;;;;;;5017780;28;20044;-64
2022/04/18 10:13:03;;;;;;;8.07;5.72;;;18.50;52.70;;;;;;5004549;28;20045;-63
2022/04/18 10:15:30;;;;;;;9.27;6.20;;;18.70;52.00;;;;;;5022672;28;20048;-59
2022/04/18 10:17:56;;;;;;;9.45;5.47;;;18.80;52.10;;;;;;5014661;28;20523;-61
2022/04/18 10:20:56;;;;;;;9.25;6.18;;;18.80;51.30;;;;;;5025663;28;20057;-63
2022/04/18 10:23:46;;;;;;;7.22;5.80;;;18.90;50.70;;;;;;5018947;28;20395;-61
2022/04/18 10:26:36;;;;;;;6.72;5.40;;;19.00;49.90;;;;;;5035913;28;20080;-68
2022/04/18 10:29:06;;;;;;;5.82;4.63;;;19.10;51.00;;;;;;5017953;28;20041;-63
2022/04/18 10:31:37;;;;;;;6.93;5.35;;;19.00;50.40;;;;;;5025104;28;20132;-61
2022/04/18 10:34:03;;;;;;;9.70;5.60;;;19.20;49.20;;;;;;5006203;28;20488;-66
2022/04/18 10:36:33;;;;;;;8.23;5.00;;;19.30;48.90;;;;;;5021715;28;20045;-62
2022/04/18 10:39:04;;;;;;;6.50;5.00;;;19.30;48.50;;;;;;5023410;28;20080;-63
2022/04/18 10:41:41;;;;;;;6.05;4.65;;;19.30;48.20;;;;;;5041069;28;20036;-62
2022/04/18 10:44:12;;;;;;;7.60;5.50;;;19.40;47.50;;;;;;5022093;28;20077;-67
2022/04/18 10:46:56;;;;;;;8.20;5.50;;;19.40;47.30;;;;;;5025733;28;20492;-63
2022/04/18 10:49:27;;;;;;;6.53;5.28;;;19.50;48.00;;;;;;5021520;28;20033;-62
2022/04/18 10:51:54;;;;;;;7.30;4.63;;;19.60;48.20;;;;;;5019092;28;20041;-62
2022/04/18 10:54:25;;;;;;;6.25;4.97;;;19.80;48.50;;;;;;5042372;28;20048;-67
2022/04/18 10:56:57;;;;;;;7.03;4.72;;;20.00;47.70;;;;;;5010674;28;20041;-63
2022/04/18 10:59:26;;;;;;;6.95;4.60;;;20.10;47.60;;;;;;5028805;28;20045;-62
2022/04/18 11:01:54;;;;;;;6.82;3.95;;;20.20;47.10;;;;;;5032655;28;20376;-62
2022/04/18 11:04:30;;;;;;;5.07;4.13;;;20.10;45.50;;;;;;5020372;28;20037;-63
2022/04/18 11:07:00;;;;;;;5.72;4.20;;;20.10;44.10;;;;;;5004825;28;20132;-62
2022/04/18 11:09:28;;;;;;;5.03;4.00;;;20.30;46.60;;;;;;5003642;28;20508;-62
2022/04/18 11:12:13;;;;;;;7.30;4.57;;;20.40;45.70;;;;;;5021397;22;20116;-62
2022/04/18 11:14:40;;;;;;;5.10;3.22;;;20.40;46.00;;;;;;4985272;28;20050;-61
2022/04/18 11:17:09;;;;;;;4.93;3.30;;;20.70;45.00;;;;;;5000835;28;20457;-64
2022/04/18 11:19:40;;;;;;;5.63;3.55;;;20.70;44.60;;;;;;4974535;28;20463;-62
2022/04/18 11:22:26;;;;;;;5.57;3.50;;;20.80;44.10;;;;;;4981941;28;20034;-65
2022/04/18 11:24:52;;;;;;;5.15;4.53;;;20.80;42.00;;;;;;4989061;28;20042;-63
2022/04/18 11:27:19;;;;;;;6.57;4.30;;;20.90;44.10;;;;;;4976329;28;20030;-64
2022/04/18 11:29:56;;;;;;;5.68;4.40;;;21.00;43.10;;;;;;4977131;28;20196;-63
2022/04/18 11:32:29;;;;;;;4.35;3.60;;;21.10;44.30;;;;;;4977599;28;22517;-65
2022/04/18 11:34:56;;;;;;;4.95;3.58;;;21.10;43.20;;;;;;4977658;28;20034;-62
2022/04/18 11:37:39;;;;;;;5.93;3.70;;;21.10;40.90;;;;;;4974858;28;20365;-63
2022/04/18 11:40:16;;;;;;;4.60;3.60;;;21.20;40.80;;;;;;4978924;28;20063;-64
2022/04/18 11:42:43;;;;;;;4.00;3.10;;;21.20;41.50;;;;;;4981039;28;20049;-64
2022/04/18 11:45:19;;;;;;;4.22;3.20;;;21.40;41.80;;;;;;4972980;28;20053;-65
2022/04/18 11:47:47;;;;;;;4.10;2.72;;;21.50;41.00;;;;;;4968477;28;20050;-64
2022/04/18 11:50:21;;;;;;;4.25;3.08;;;21.60;40.70;;;;;;4987272;28;20042;-65
2022/04/18 11:52:47;;;;;;;4.32;2.83;;;21.40;41.00;;;;;;4985285;28;20085;-61
2022/04/18 11:55:17;;;;;;;5.10;2.85;;;21.40;41.10;;;;;;4981892;28;20042;-64
2022/04/18 11:57:48;;;;;;;4.30;2.67;;;21.60;40.40;;;;;;4985350;28;20092;-60
2022/04/18 12:08:36;;;;;;;3.08;2.20;;;22.00;40.00;;;;;;4971707;28;20520;-61
2022/04/18 12:11:01;;;;;;;4.60;3.28;;;22.10;39.90;;;;;;4965914;28;20046;-62
2022/04/18 12:13:27;;;;;;;3.38;2.67;;;22.20;38.90;;;;;;4966936;28;20129;-62
2022/04/18 12:15:53;;;;;;;4.20;3.28;;;22.20;39.20;;;;;;4949734;28;20042;-71
2022/04/18 12:18:19;;;;;;;4.05;2.75;;;22.10;38.10;;;;;;4968261;28;20559;-66
2022/04/18 12:20:50;;;;;;;4.35;3.15;;;22.10;38.60;;;;;;4966454;28;20042;-72
2022/04/18 12:23:18;;;;;;;5.85;2.90;;;22.30;39.40;;;;;;4959722;28;20370;-63
2022/04/18 12:25:46;;;;;;;3.63;2.63;;;22.40;39.40;;;;;;4970460;28;20042;-65
2022/04/18 12:28:13;;;;;;;3.40;2.53;;;22.40;38.50;;;;;;4963776;28;20085;-66
2022/04/18 12:30:39;;;;;;;5.10;3.30;;;22.40;38.00;;;;;;4973527;28;20489;-65
2022/04/18 12:33:19;;;;;;;4.55;3.00;;;22.40;37.30;;;;;;4960584;28;20038;-68
2022/04/18 12:35:48;;;;;;;4.53;3.13;;;22.50;37.30;;;;;;4960798;28;20116;-64
2022/04/18 12:38:16;;;;;;;6.35;2.97;;;22.60;37.80;;;;;;4960776;28;20049;-66
2022/04/18 12:40:44;;;;;;;4.47;2.97;;;22.70;37.50;;;;;;4979940;28;20038;-67
2022/04/18 12:43:19;;;;;;;4.43;2.97;;;22.90;38.50;;;;;;4967646;28;20088;-68
2022/04/18 12:45:55;;;;;;;5.90;2.58;;;23.00;37.90;;;;;;4951488;28;20185;-69
2022/04/18 12:48:29;;;;;;;3.95;2.67;;;23.10;38.20;;;;;;4962716;28;20042;-63
2022/04/18 12:50:58;;;;;;;6.20;3.53;;;23.10;36.70;;;;;;4961023;28;20125;-66
2022/04/18 12:53:53;;;;;;;4.78;3.05;;;23.10;36.60;;;;;;4962028;28;20058;-67
2022/04/18 12:56:25;;;;;;;4.28;3.10;;;23.00;36.70;;;;;;4957765;28;20460;-65
2022/04/18 12:58:54;;;;;;;3.45;2.88;;;23.20;37.70;;;;;;4973177;28;20671;-62
2022/04/18 13:01:32;;;;;;;4.30;3.03;;;23.40;37.90;;;;;;4962433;28;20051;-70
2022/04/18 13:03:58;;;;;;;3.67;2.80;;;23.50;37.70;;;;;;4966145;28;20132;-66
2022/04/18 13:06:25;;;;;;;4.63;2.22;;;23.50;37.00;;;;;;4962659;28;20508;-68
2022/04/18 13:09:12;;;;;;;3.20;2.47;;;23.30;36.80;;;;;;4973304;28;20172;-68
2022/04/18 13:11:42;;;;;;;4.63;3.15;;;23.50;37.60;;;;;;4965430;28;20078;-67
2022/04/18 13:14:10;;;;;;;5.45;3.13;;;23.50;36.10;;;;;;4977366;28;20390;-62